sensor_id;sensor_type;location;lat;lon;timestamp;P1;durP1;ratioP1;P2;durP2;ratioP2
15706;SDS011;7953;54.302;10.128;2023-02-01T00:02:14;21.10;;;4.90;;
15706;SDS011;7953;54.302;10.128;2023-02-01T00:04:42;24.53;;;4.40;;
15706;SDS011;7953;54.302;10.128;2023-02-01T00:07:09;20.47;;;5.07;;
15706;SDS011;7953;54.302;10.128;2023-02-01T00:09:36;23.63;;;4.20;;
15706;SDS011;7953;54.302;10.128;2023-02-01T00:12:03;20.13;;;4.13;;
15706;SDS011;7953;54.302;10.128;2023-02-01T00:14:30;18.33;;;5.30;;
15706;SDS011;7953;54.302;10.128;2023-02-01T00:17:03;22.30;;;4.40;;
15706;SDS011;7953;54.302;10.128;2023-02-01T00:19:31;27.00;;;5.03;;
15706;SDS011;7953;54.302;10.128;2023-02-01T00:22:00;28.43;;;5.47;;
15706;SDS011;7953;54.302;10.128;2023-02-01T00:24:26;31.43;;;4.90;;
15706;SDS011;7953;54.302;10.128;2023-02-01T00:26:53;21.83;;;5.10;;
15706;SDS011;7953;54.302;10.128;2023-02-01T00:29:20;25.43;;;4.60;;
15706;SDS011;7953;54.302;10.128;2023-02-01T00:31:49;24.37;;;4.63;;
15706;SDS011;7953;54.302;10.128;2023-02-01T00:34:17;23.80;;;4.73;;
15706;SDS011;7953;54.302;10.128;2023-02-01T00:36:44;24.87;;;5.40;;
15706;SDS011;7953;54.302;10.128;2023-02-01T00:39:13;23.87;;;4.27;;
15706;SDS011;7953;54.302;10.128;2023-02-01T00:41:40;21.63;;;4.17;;
15706;SDS011;7953;54.302;10.128;2023-02-01T00:44:07;21.93;;;6.33;;
15706;SDS011;7953;54.302;10.128;2023-02-01T00:46:34;30.00;;;5.67;;
15706;SDS011;7953;54.302;10.128;2023-02-01T00:49:01;24.90;;;5.30;;
15706;SDS011;7953;54.302;10.128;2023-02-01T00:51:29;24.50;;;4.77;;
15706;SDS011;7953;54.302;10.128;2023-02-01T00:53:56;26.40;;;6.50;;
15706;SDS011;7953;54.302;10.128;2023-02-01T00:56:25;24.63;;;5.97;;
15706;SDS011;7953;54.302;10.128;2023-02-01T00:58:53;26.90;;;4.97;;
15706;SDS011;7953;54.302;10.128;2023-02-01T01:01:21;24.80;;;5.47;;
15706;SDS011;7953;54.302;10.128;2023-02-01T01:03:49;31.63;;;6.57;;
15706;SDS011;7953;54.302;10.128;2023-02-01T01:06:18;21.93;;;4.60;;
15706;SDS011;7953;54.302;10.128;2023-02-01T01:08:47;23.33;;;6.77;;
15706;SDS011;7953;54.302;10.128;2023-02-01T01:11:15;28.43;;;6.00;;
15706;SDS011;7953;54.302;10.128;2023-02-01T01:13:45;23.83;;;5.73;;
15706;SDS011;7953;54.302;10.128;2023-02-01T01:16:15;26.03;;;6.60;;
15706;SDS011;7953;54.302;10.128;2023-02-01T01:18:42;29.77;;;5.53;;
15706;SDS011;7953;54.302;10.128;2023-02-01T01:21:11;25.43;;;5.70;;
15706;SDS011;7953;54.302;10.128;2023-02-01T01:23:40;25.40;;;5.70;;
15706;SDS011;7953;54.302;10.128;2023-02-01T01:26:07;23.40;;;5.87;;
15706;SDS011;7953;54.302;10.128;2023-02-01T01:28:36;25.63;;;5.13;;
15706;SDS011;7953;54.302;10.128;2023-02-01T01:31:05;26.17;;;5.53;;
15706;SDS011;7953;54.302;10.128;2023-02-01T01:33:34;20.10;;;5.13;;
15706;SDS011;7953;54.302;10.128;2023-02-01T01:36:01;30.60;;;5.87;;
15706;SDS011;7953;54.302;10.128;2023-02-01T01:38:30;29.60;;;6.00;;
15706;SDS011;7953;54.302;10.128;2023-02-01T01:40:57;21.20;;;4.80;;
15706;SDS011;7953;54.302;10.128;2023-02-01T01:43:24;28.20;;;5.70;;
15706;SDS011;7953;54.302;10.128;2023-02-01T01:45:51;30.07;;;6.77;;
15706;SDS011;7953;54.302;10.128;2023-02-01T01:48:20;19.97;;;5.57;;
15706;SDS011;7953;54.302;10.128;2023-02-01T01:50:54;26.13;;;5.93;;
15706;SDS011;7953;54.302;10.128;2023-02-01T01:53:26;29.33;;;6.80;;
15706;SDS011;7953;54.302;10.128;2023-02-01T01:55:56;31.07;;;6.17;;
15706;SDS011;7953;54.302;10.128;2023-02-01T01:58:24;24.27;;;5.50;;
15706;SDS011;7953;54.302;10.128;2023-02-01T02:00:52;22.97;;;5.73;;
15706;SDS011;7953;54.302;10.128;2023-02-01T02:03:22;23.50;;;5.73;;
15706;SDS011;7953;54.302;10.128;2023-02-01T02:05:52;27.33;;;5.10;;
15706;SDS011;7953;54.302;10.128;2023-02-01T02:08:23;33.00;;;4.97;;
15706;SDS011;7953;54.302;10.128;2023-02-01T02:10:52;20.87;;;5.53;;
15706;SDS011;7953;54.302;10.128;2023-02-01T02:13:26;24.83;;;5.30;;
15706;SDS011;7953;54.302;10.128;2023-02-01T02:15:58;28.23;;;6.07;;
15706;SDS011;7953;54.302;10.128;2023-02-01T02:18:47;30.90;;;6.70;;
15706;SDS011;7953;54.302;10.128;2023-02-01T02:21:23;19.43;;;5.03;;
15706;SDS011;7953;54.302;10.128;2023-02-01T02:24:18;21.53;;;5.10;;
15706;SDS011;7953;54.302;10.128;2023-02-01T02:27:04;18.53;;;4.97;;
15706;SDS011;7953;54.302;10.128;2023-02-01T02:30:02;28.67;;;6.67;;
15706;SDS011;7953;54.302;10.128;2023-02-01T02:33:15;22.23;;;5.57;;
15706;SDS011;7953;54.302;10.128;2023-02-01T02:36:04;24.07;;;5.93;;
15706;SDS011;7953;54.302;10.128;2023-02-01T02:38:39;30.43;;;6.53;;
15706;SDS011;7953;54.302;10.128;2023-02-01T02:41:14;29.70;;;5.60;;
15706;SDS011;7953;54.302;10.128;2023-02-01T02:44:08;26.60;;;5.90;;
15706;SDS011;7953;54.302;10.128;2023-02-01T02:46:58;24.43;;;5.67;;
15706;SDS011;7953;54.302;10.128;2023-02-01T02:49:51;24.43;;;6.00;;
15706;SDS011;7953;54.302;10.128;2023-02-01T02:52:36;25.57;;;6.50;;
15706;SDS011;7953;54.302;10.128;2023-02-01T02:55:26;23.70;;;5.50;;
15706;SDS011;7953;54.302;10.128;2023-02-01T02:57:54;27.87;;;6.23;;
15706;SDS011;7953;54.302;10.128;2023-02-01T03:00:41;27.60;;;6.53;;
15706;SDS011;7953;54.302;10.128;2023-02-01T03:03:27;25.97;;;5.43;;
15706;SDS011;7953;54.302;10.128;2023-02-01T03:06:13;33.27;;;6.73;;
15706;SDS011;7953;54.302;10.128;2023-02-01T03:08:43;41.80;;;6.93;;
15706;SDS011;7953;54.302;10.128;2023-02-01T03:11:10;23.50;;;5.83;;
15706;SDS011;7953;54.302;10.128;2023-02-01T03:13:41;31.77;;;7.73;;
15706;SDS011;7953;54.302;10.128;2023-02-01T03:16:11;33.17;;;7.83;;
15706;SDS011;7953;54.302;10.128;2023-02-01T03:18:48;31.60;;;5.07;;
15706;SDS011;7953;54.302;10.128;2023-02-01T03:21:22;33.23;;;6.57;;
15706;SDS011;7953;54.302;10.128;2023-02-01T03:23:52;29.27;;;5.27;;
15706;SDS011;7953;54.302;10.128;2023-02-01T03:26:21;32.30;;;7.00;;
15706;SDS011;7953;54.302;10.128;2023-02-01T03:28:55;28.73;;;6.67;;
15706;SDS011;7953;54.302;10.128;2023-02-01T03:31:26;27.20;;;6.83;;
15706;SDS011;7953;54.302;10.128;2023-02-01T03:33:54;28.53;;;5.70;;
15706;SDS011;7953;54.302;10.128;2023-02-01T03:36:24;27.93;;;6.87;;
15706;SDS011;7953;54.302;10.128;2023-02-01T03:38:57;28.87;;;5.50;;
15706;SDS011;7953;54.302;10.128;2023-02-01T03:41:31;29.67;;;6.40;;
15706;SDS011;7953;54.302;10.128;2023-02-01T03:44:06;30.77;;;6.20;;
15706;SDS011;7953;54.302;10.128;2023-02-01T03:46:40;34.00;;;6.30;;
15706;SDS011;7953;54.302;10.128;2023-02-01T03:49:13;28.70;;;6.20;;
15706;SDS011;7953;54.302;10.128;2023-02-01T03:51:46;17.00;;;5.10;;
15706;SDS011;7953;54.302;10.128;2023-02-01T03:54:15;22.43;;;4.97;;
15706;SDS011;7953;54.302;10.128;2023-02-01T03:56:44;17.90;;;3.47;;
15706;SDS011;7953;54.302;10.128;2023-02-01T03:59:14;22.03;;;4.50;;
15706;SDS011;7953;54.302;10.128;2023-02-01T04:01:41;15.10;;;3.50;;
15706;SDS011;7953;54.302;10.128;2023-02-01T04:04:08;14.10;;;3.63;;
15706;SDS011;7953;54.302;10.128;2023-02-01T04:06:35;14.63;;;3.30;;
15706;SDS011;7953;54.302;10.128;2023-02-01T04:09:03;15.87;;;2.80;;
15706;SDS011;7953;54.302;10.128;2023-02-01T04:11:30;8.93;;;2.97;;
15706;SDS011;7953;54.302;10.128;2023-02-01T04:13:57;12.87;;;3.63;;
15706;SDS011;7953;54.302;10.128;2023-02-01T04:16:29;11.30;;;2.33;;
15706;SDS011;7953;54.302;10.128;2023-02-01T04:18:56;9.93;;;2.80;;
15706;SDS011;7953;54.302;10.128;2023-02-01T04:21:23;8.30;;;1.90;;
15706;SDS011;7953;54.302;10.128;2023-02-01T04:23:50;11.00;;;2.73;;
15706;SDS011;7953;54.302;10.128;2023-02-01T04:26:19;11.00;;;1.70;;
15706;SDS011;7953;54.302;10.128;2023-02-01T04:28:46;11.20;;;2.20;;
15706;SDS011;7953;54.302;10.128;2023-02-01T04:31:13;9.73;;;1.83;;
15706;SDS011;7953;54.302;10.128;2023-02-01T04:33:40;8.77;;;1.77;;
15706;SDS011;7953;54.302;10.128;2023-02-01T04:36:07;10.73;;;2.33;;
15706;SDS011;7953;54.302;10.128;2023-02-01T04:38:34;10.47;;;2.60;;
15706;SDS011;7953;54.302;10.128;2023-02-01T04:41:01;9.97;;;3.03;;
15706;SDS011;7953;54.302;10.128;2023-02-01T04:43:29;13.53;;;3.50;;
15706;SDS011;7953;54.302;10.128;2023-02-01T04:45:56;10.03;;;2.40;;
15706;SDS011;7953;54.302;10.128;2023-02-01T04:48:23;10.33;;;3.03;;
15706;SDS011;7953;54.302;10.128;2023-02-01T04:50:50;13.47;;;3.30;;
15706;SDS011;7953;54.302;10.128;2023-02-01T04:53:17;9.30;;;2.50;;
15706;SDS011;7953;54.302;10.128;2023-02-01T04:55:44;9.90;;;2.00;;
15706;SDS011;7953;54.302;10.128;2023-02-01T04:58:11;11.47;;;2.50;;
15706;SDS011;7953;54.302;10.128;2023-02-01T05:00:39;10.13;;;2.93;;
15706;SDS011;7953;54.302;10.128;2023-02-01T05:03:06;14.13;;;2.73;;
15706;SDS011;7953;54.302;10.128;2023-02-01T05:05:33;13.73;;;3.03;;
15706;SDS011;7953;54.302;10.128;2023-02-01T05:08:00;17.10;;;3.27;;
15706;SDS011;7953;54.302;10.128;2023-02-01T05:10:26;19.47;;;4.17;;
15706;SDS011;7953;54.302;10.128;2023-02-01T05:12:53;17.13;;;2.60;;
15706;SDS011;7953;54.302;10.128;2023-02-01T05:15:39;13.57;;;3.30;;
15706;SDS011;7953;54.302;10.128;2023-02-01T05:18:06;16.70;;;2.57;;
15706;SDS011;7953;54.302;10.128;2023-02-01T05:20:33;16.67;;;3.20;;
15706;SDS011;7953;54.302;10.128;2023-02-01T05:23:00;14.83;;;4.63;;
15706;SDS011;7953;54.302;10.128;2023-02-01T05:25:26;15.07;;;3.07;;
15706;SDS011;7953;54.302;10.128;2023-02-01T05:27:53;14.60;;;3.60;;
15706;SDS011;7953;54.302;10.128;2023-02-01T05:30:20;21.33;;;3.43;;
15706;SDS011;7953;54.302;10.128;2023-02-01T05:32:50;14.93;;;3.47;;
15706;SDS011;7953;54.302;10.128;2023-02-01T05:35:17;14.87;;;3.07;;
15706;SDS011;7953;54.302;10.128;2023-02-01T05:37:44;20.10;;;3.83;;
15706;SDS011;7953;54.302;10.128;2023-02-01T05:40:11;11.33;;;3.27;;
15706;SDS011;7953;54.302;10.128;2023-02-01T05:42:38;16.70;;;2.80;;
15706;SDS011;7953;54.302;10.128;2023-02-01T05:45:05;12.63;;;3.93;;
15706;SDS011;7953;54.302;10.128;2023-02-01T05:47:33;18.87;;;3.27;;
15706;SDS011;7953;54.302;10.128;2023-02-01T05:50:01;13.73;;;3.00;;
15706;SDS011;7953;54.302;10.128;2023-02-01T05:52:28;15.17;;;3.50;;
15706;SDS011;7953;54.302;10.128;2023-02-01T05:54:55;12.50;;;2.93;;
15706;SDS011;7953;54.302;10.128;2023-02-01T05:57:23;15.43;;;3.50;;
15706;SDS011;7953;54.302;10.128;2023-02-01T05:59:50;14.83;;;2.67;;
15706;SDS011;7953;54.302;10.128;2023-02-01T06:02:17;11.93;;;3.30;;
15706;SDS011;7953;54.302;10.128;2023-02-01T06:04:44;18.20;;;3.50;;
15706;SDS011;7953;54.302;10.128;2023-02-01T06:07:12;9.20;;;2.90;;
15706;SDS011;7953;54.302;10.128;2023-02-01T06:09:39;19.50;;;3.73;;
15706;SDS011;7953;54.302;10.128;2023-02-01T06:12:06;19.60;;;3.80;;
15706;SDS011;7953;54.302;10.128;2023-02-01T06:14:33;15.43;;;4.60;;
15706;SDS011;7953;54.302;10.128;2023-02-01T06:17:00;17.40;;;4.80;;
15706;SDS011;7953;54.302;10.128;2023-02-01T06:19:27;20.27;;;3.63;;
15706;SDS011;7953;54.302;10.128;2023-02-01T06:21:55;15.20;;;4.27;;
15706;SDS011;7953;54.302;10.128;2023-02-01T06:24:23;13.30;;;3.60;;
15706;SDS011;7953;54.302;10.128;2023-02-01T06:26:50;15.83;;;4.57;;
15706;SDS011;7953;54.302;10.128;2023-02-01T06:29:17;17.77;;;3.13;;
15706;SDS011;7953;54.302;10.128;2023-02-01T06:31:44;13.13;;;2.93;;
15706;SDS011;7953;54.302;10.128;2023-02-01T06:34:11;15.93;;;3.17;;
15706;SDS011;7953;54.302;10.128;2023-02-01T06:36:37;14.80;;;3.10;;
15706;SDS011;7953;54.302;10.128;2023-02-01T06:39:05;12.83;;;2.73;;
15706;SDS011;7953;54.302;10.128;2023-02-01T06:41:33;15.97;;;3.70;;
15706;SDS011;7953;54.302;10.128;2023-02-01T06:44:00;21.03;;;4.13;;
15706;SDS011;7953;54.302;10.128;2023-02-01T06:46:27;11.63;;;3.40;;
15706;SDS011;7953;54.302;10.128;2023-02-01T06:48:54;11.67;;;2.70;;
15706;SDS011;7953;54.302;10.128;2023-02-01T06:51:22;17.37;;;3.63;;
15706;SDS011;7953;54.302;10.128;2023-02-01T06:53:50;19.17;;;3.40;;
15706;SDS011;7953;54.302;10.128;2023-02-01T06:56:17;20.20;;;4.20;;
15706;SDS011;7953;54.302;10.128;2023-02-01T06:58:45;15.73;;;3.13;;
15706;SDS011;7953;54.302;10.128;2023-02-01T07:01:12;18.77;;;5.17;;
15706;SDS011;7953;54.302;10.128;2023-02-01T07:03:40;24.80;;;3.40;;
15706;SDS011;7953;54.302;10.128;2023-02-01T07:06:08;14.80;;;3.63;;
15706;SDS011;7953;54.302;10.128;2023-02-01T07:08:36;16.73;;;3.50;;
15706;SDS011;7953;54.302;10.128;2023-02-01T07:11:04;21.27;;;5.87;;
15706;SDS011;7953;54.302;10.128;2023-02-01T07:13:31;26.87;;;4.47;;
15706;SDS011;7953;54.302;10.128;2023-02-01T07:16:00;19.73;;;3.97;;
15706;SDS011;7953;54.302;10.128;2023-02-01T07:18:29;25.87;;;4.60;;
15706;SDS011;7953;54.302;10.128;2023-02-01T07:20:57;16.40;;;4.33;;
15706;SDS011;7953;54.302;10.128;2023-02-01T07:23:24;20.10;;;3.77;;
15706;SDS011;7953;54.302;10.128;2023-02-01T07:25:54;26.23;;;4.57;;
15706;SDS011;7953;54.302;10.128;2023-02-01T07:28:22;33.23;;;6.57;;
15706;SDS011;7953;54.302;10.128;2023-02-01T07:30:49;26.67;;;5.50;;
15706;SDS011;7953;54.302;10.128;2023-02-01T07:33:19;23.27;;;6.13;;
15706;SDS011;7953;54.302;10.128;2023-02-01T07:35:47;26.97;;;5.87;;
15706;SDS011;7953;54.302;10.128;2023-02-01T07:38:15;23.57;;;5.20;;
15706;SDS011;7953;54.302;10.128;2023-02-01T07:40:42;25.10;;;5.13;;
15706;SDS011;7953;54.302;10.128;2023-02-01T07:43:09;21.37;;;5.63;;
15706;SDS011;7953;54.302;10.128;2023-02-01T07:45:36;27.13;;;5.53;;
15706;SDS011;7953;54.302;10.128;2023-02-01T07:48:03;24.10;;;5.63;;
15706;SDS011;7953;54.302;10.128;2023-02-01T07:50:32;23.87;;;5.50;;
15706;SDS011;7953;54.302;10.128;2023-02-01T07:52:59;25.20;;;5.43;;
15706;SDS011;7953;54.302;10.128;2023-02-01T07:55:26;27.87;;;6.57;;
15706;SDS011;7953;54.302;10.128;2023-02-01T07:57:56;25.63;;;5.60;;
15706;SDS011;7953;54.302;10.128;2023-02-01T08:00:23;23.83;;;5.43;;
15706;SDS011;7953;54.302;10.128;2023-02-01T08:03:08;21.30;;;5.20;;
15706;SDS011;7953;54.302;10.128;2023-02-01T08:05:36;19.80;;;4.77;;
15706;SDS011;7953;54.302;10.128;2023-02-01T08:08:03;19.97;;;5.17;;
15706;SDS011;7953;54.302;10.128;2023-02-01T08:10:30;20.77;;;4.13;;
15706;SDS011;7953;54.302;10.128;2023-02-01T08:12:57;26.57;;;4.10;;
15706;SDS011;7953;54.302;10.128;2023-02-01T08:15:25;17.60;;;4.13;;
15706;SDS011;7953;54.302;10.128;2023-02-01T08:17:52;19.43;;;4.43;;
15706;SDS011;7953;54.302;10.128;2023-02-01T08:20:20;23.03;;;4.97;;
15706;SDS011;7953;54.302;10.128;2023-02-01T08:22:50;26.13;;;4.77;;
15706;SDS011;7953;54.302;10.128;2023-02-01T08:25:17;20.70;;;3.97;;
15706;SDS011;7953;54.302;10.128;2023-02-01T08:27:44;14.90;;;3.43;;
15706;SDS011;7953;54.302;10.128;2023-02-01T08:30:11;17.80;;;5.43;;
15706;SDS011;7953;54.302;10.128;2023-02-01T08:32:39;14.87;;;3.97;;
15706;SDS011;7953;54.302;10.128;2023-02-01T08:35:06;16.43;;;3.63;;
15706;SDS011;7953;54.302;10.128;2023-02-01T08:37:34;17.57;;;3.83;;
15706;SDS011;7953;54.302;10.128;2023-02-01T08:40:03;22.07;;;4.87;;
15706;SDS011;7953;54.302;10.128;2023-02-01T08:42:30;16.47;;;3.60;;
15706;SDS011;7953;54.302;10.128;2023-02-01T08:45:15;16.13;;;3.43;;
15706;SDS011;7953;54.302;10.128;2023-02-01T08:47:42;20.33;;;4.13;;
15706;SDS011;7953;54.302;10.128;2023-02-01T08:50:09;20.60;;;4.73;;
15706;SDS011;7953;54.302;10.128;2023-02-01T08:52:36;21.87;;;4.93;;
15706;SDS011;7953;54.302;10.128;2023-02-01T08:55:05;19.53;;;4.40;;
15706;SDS011;7953;54.302;10.128;2023-02-01T08:57:33;15.67;;;3.73;;
15706;SDS011;7953;54.302;10.128;2023-02-01T09:00:00;21.50;;;4.60;;
15706;SDS011;7953;54.302;10.128;2023-02-01T09:02:28;16.07;;;3.67;;
15706;SDS011;7953;54.302;10.128;2023-02-01T09:04:55;13.43;;;3.57;;
15706;SDS011;7953;54.302;10.128;2023-02-01T09:07:22;16.83;;;4.73;;
15706;SDS011;7953;54.302;10.128;2023-02-01T09:09:49;24.00;;;4.03;;
15706;SDS011;7953;54.302;10.128;2023-02-01T09:12:17;18.20;;;5.00;;
15706;SDS011;7953;54.302;10.128;2023-02-01T09:14:44;22.93;;;4.13;;
15706;SDS011;7953;54.302;10.128;2023-02-01T09:17:11;15.87;;;3.87;;
15706;SDS011;7953;54.302;10.128;2023-02-01T09:19:38;20.33;;;4.37;;
15706;SDS011;7953;54.302;10.128;2023-02-01T09:22:05;20.77;;;4.07;;
15706;SDS011;7953;54.302;10.128;2023-02-01T09:24:32;17.63;;;4.83;;
15706;SDS011;7953;54.302;10.128;2023-02-01T09:26:59;16.77;;;3.97;;
15706;SDS011;7953;54.302;10.128;2023-02-01T09:29:27;15.63;;;4.47;;
15706;SDS011;7953;54.302;10.128;2023-02-01T09:31:54;16.40;;;4.00;;
15706;SDS011;7953;54.302;10.128;2023-02-01T09:34:21;16.70;;;4.23;;
15706;SDS011;7953;54.302;10.128;2023-02-01T09:36:48;17.93;;;4.07;;
15706;SDS011;7953;54.302;10.128;2023-02-01T09:39:15;22.03;;;4.60;;
15706;SDS011;7953;54.302;10.128;2023-02-01T09:41:45;21.97;;;4.30;;
15706;SDS011;7953;54.302;10.128;2023-02-01T09:44:22;19.20;;;5.60;;
15706;SDS011;7953;54.302;10.128;2023-02-01T09:47:11;16.67;;;4.20;;
15706;SDS011;7953;54.302;10.128;2023-02-01T09:49:42;23.53;;;4.40;;
15706;SDS011;7953;54.302;10.128;2023-02-01T09:52:17;17.37;;;4.13;;
15706;SDS011;7953;54.302;10.128;2023-02-01T09:54:49;29.83;;;6.30;;
15706;SDS011;7953;54.302;10.128;2023-02-01T09:57:23;24.43;;;5.73;;
15706;SDS011;7953;54.302;10.128;2023-02-01T09:59:56;21.53;;;4.73;;
15706;SDS011;7953;54.302;10.128;2023-02-01T10:02:28;24.63;;;5.00;;
15706;SDS011;7953;54.302;10.128;2023-02-01T10:04:57;17.43;;;4.13;;
15706;SDS011;7953;54.302;10.128;2023-02-01T10:07:27;18.33;;;3.93;;
15706;SDS011;7953;54.302;10.128;2023-02-01T10:10:05;23.63;;;4.63;;
15706;SDS011;7953;54.302;10.128;2023-02-01T10:15:43;16.43;;;4.13;;
15706;SDS011;7953;54.302;10.128;2023-02-01T10:18:23;17.10;;;4.50;;
15706;SDS011;7953;54.302;10.128;2023-02-01T10:21:01;24.57;;;3.80;;
15706;SDS011;7953;54.302;10.128;2023-02-01T10:23:37;14.17;;;3.80;;
15706;SDS011;7953;54.302;10.128;2023-02-01T10:26:18;17.27;;;4.67;;
15706;SDS011;7953;54.302;10.128;2023-02-01T10:28:48;18.63;;;3.63;;
15706;SDS011;7953;54.302;10.128;2023-02-01T10:31:18;22.83;;;4.73;;
15706;SDS011;7953;54.302;10.128;2023-02-01T10:33:48;15.97;;;4.73;;
15706;SDS011;7953;54.302;10.128;2023-02-01T10:36:19;17.00;;;3.70;;
15706;SDS011;7953;54.302;10.128;2023-02-01T10:38:49;19.90;;;4.47;;
15706;SDS011;7953;54.302;10.128;2023-02-01T10:41:16;19.93;;;4.50;;
15706;SDS011;7953;54.302;10.128;2023-02-01T10:43:46;23.03;;;4.17;;
15706;SDS011;7953;54.302;10.128;2023-02-01T10:46:17;16.27;;;3.83;;
15706;SDS011;7953;54.302;10.128;2023-02-01T10:48:44;20.67;;;4.53;;
15706;SDS011;7953;54.302;10.128;2023-02-01T10:51:13;25.10;;;4.93;;
15706;SDS011;7953;54.302;10.128;2023-02-01T10:53:46;12.70;;;3.77;;
15706;SDS011;7953;54.302;10.128;2023-02-01T10:56:21;21.13;;;4.23;;
15706;SDS011;7953;54.302;10.128;2023-02-01T10:58:48;20.97;;;4.37;;
15706;SDS011;7953;54.302;10.128;2023-02-01T11:01:19;17.07;;;3.80;;
15706;SDS011;7953;54.302;10.128;2023-02-01T11:03:51;20.77;;;4.33;;
15706;SDS011;7953;54.302;10.128;2023-02-01T11:06:24;23.00;;;4.67;;
15706;SDS011;7953;54.302;10.128;2023-02-01T11:08:55;24.13;;;4.20;;
15706;SDS011;7953;54.302;10.128;2023-02-01T11:11:23;11.63;;;3.63;;
15706;SDS011;7953;54.302;10.128;2023-02-01T11:13:51;12.87;;;3.70;;
15706;SDS011;7953;54.302;10.128;2023-02-01T11:16:22;16.00;;;3.20;;
15706;SDS011;7953;54.302;10.128;2023-02-01T11:18:56;20.47;;;3.93;;
15706;SDS011;7953;54.302;10.128;2023-02-01T11:21:25;16.80;;;5.37;;
15706;SDS011;7953;54.302;10.128;2023-02-01T11:23:52;21.47;;;4.27;;
15706;SDS011;7953;54.302;10.128;2023-02-01T11:26:20;19.20;;;3.93;;
15706;SDS011;7953;54.302;10.128;2023-02-01T11:28:51;27.53;;;4.80;;
15706;SDS011;7953;54.302;10.128;2023-02-01T11:31:24;23.30;;;5.20;;
15706;SDS011;7953;54.302;10.128;2023-02-01T11:33:52;27.57;;;5.13;;
15706;SDS011;7953;54.302;10.128;2023-02-01T11:36:23;23.03;;;4.90;;
15706;SDS011;7953;54.302;10.128;2023-02-01T11:38:54;23.03;;;4.93;;
15706;SDS011;7953;54.302;10.128;2023-02-01T11:41:34;17.10;;;4.43;;
15706;SDS011;7953;54.302;10.128;2023-02-01T11:44:15;19.97;;;5.07;;
15706;SDS011;7953;54.302;10.128;2023-02-01T11:46:47;26.97;;;4.70;;
15706;SDS011;7953;54.302;10.128;2023-02-01T11:49:18;29.57;;;7.77;;
15706;SDS011;7953;54.302;10.128;2023-02-01T11:51:50;23.83;;;4.77;;
15706;SDS011;7953;54.302;10.128;2023-02-01T11:54:33;16.47;;;3.70;;
15706;SDS011;7953;54.302;10.128;2023-02-01T11:57:18;22.80;;;4.93;;
15706;SDS011;7953;54.302;10.128;2023-02-01T12:00:15;22.50;;;4.50;;
15706;SDS011;7953;54.302;10.128;2023-02-01T12:03:04;17.67;;;4.50;;
15706;SDS011;7953;54.302;10.128;2023-02-01T12:05:48;15.63;;;4.40;;
15706;SDS011;7953;54.302;10.128;2023-02-01T12:08:26;5.40;;;1.70;;
15706;SDS011;7953;54.302;10.128;2023-02-01T12:11:18;4.43;;;1.30;;
15706;SDS011;7953;54.302;10.128;2023-02-01T12:14:04;3.97;;;1.33;;
15706;SDS011;7953;54.302;10.128;2023-02-01T12:16:39;7.60;;;1.43;;
15706;SDS011;7953;54.302;10.128;2023-02-01T12:19:20;5.00;;;1.90;;
15706;SDS011;7953;54.302;10.128;2023-02-01T12:22:07;6.13;;;1.83;;
15706;SDS011;7953;54.302;10.128;2023-02-01T12:25:00;6.83;;;1.50;;
15706;SDS011;7953;54.302;10.128;2023-02-01T12:27:51;7.83;;;2.17;;
15706;SDS011;7953;54.302;10.128;2023-02-01T12:30:54;4.80;;;1.30;;
15706;SDS011;7953;54.302;10.128;2023-02-01T12:33:43;5.50;;;1.20;;
15706;SDS011;7953;54.302;10.128;2023-02-01T12:36:28;7.67;;;1.60;;
15706;SDS011;7953;54.302;10.128;2023-02-01T12:39:05;7.70;;;1.53;;
15706;SDS011;7953;54.302;10.128;2023-02-01T12:41:45;12.40;;;2.50;;
15706;SDS011;7953;54.302;10.128;2023-02-01T12:44:36;10.50;;;1.93;;
15706;SDS011;7953;54.302;10.128;2023-02-01T12:47:12;13.03;;;2.97;;
15706;SDS011;7953;54.302;10.128;2023-02-01T12:49:46;18.17;;;3.27;;
15706;SDS011;7953;54.302;10.128;2023-02-01T12:52:20;10.20;;;2.40;;
15706;SDS011;7953;54.302;10.128;2023-02-01T12:54:53;13.87;;;2.83;;
15706;SDS011;7953;54.302;10.128;2023-02-01T12:57:25;12.10;;;3.17;;
15706;SDS011;7953;54.302;10.128;2023-02-01T12:59:56;12.10;;;3.03;;
15706;SDS011;7953;54.302;10.128;2023-02-01T13:02:32;22.60;;;4.17;;
15706;SDS011;7953;54.302;10.128;2023-02-01T13:05:12;13.40;;;2.90;;
15706;SDS011;7953;54.302;10.128;2023-02-01T13:07:45;11.63;;;2.47;;
15706;SDS011;7953;54.302;10.128;2023-02-01T13:10:17;12.37;;;3.23;;
15706;SDS011;7953;54.302;10.128;2023-02-01T13:12:51;10.87;;;2.50;;
15706;SDS011;7953;54.302;10.128;2023-02-01T13:15:21;9.90;;;2.83;;
15706;SDS011;7953;54.302;10.128;2023-02-01T13:17:52;9.07;;;2.30;;
15706;SDS011;7953;54.302;10.128;2023-02-01T13:20:25;8.83;;;2.23;;
15706;SDS011;7953;54.302;10.128;2023-02-01T13:23:00;9.90;;;2.93;;
15706;SDS011;7953;54.302;10.128;2023-02-01T13:25:32;9.77;;;1.90;;
15706;SDS011;7953;54.302;10.128;2023-02-01T13:28:04;10.20;;;1.80;;
15706;SDS011;7953;54.302;10.128;2023-02-01T13:30:39;4.97;;;1.80;;
15706;SDS011;7953;54.302;10.128;2023-02-01T13:33:33;8.50;;;2.83;;
15706;SDS011;7953;54.302;10.128;2023-02-01T13:36:18;6.40;;;1.83;;
15706;SDS011;7953;54.302;10.128;2023-02-01T13:42:11;8.40;;;2.10;;
15706;SDS011;7953;54.302;10.128;2023-02-01T13:44:43;10.17;;;1.73;;
15706;SDS011;7953;54.302;10.128;2023-02-01T13:47:15;8.17;;;1.83;;
15706;SDS011;7953;54.302;10.128;2023-02-01T13:49:49;9.97;;;2.30;;
15706;SDS011;7953;54.302;10.128;2023-02-01T13:52:23;13.63;;;3.30;;
15706;SDS011;7953;54.302;10.128;2023-02-01T13:55:02;15.63;;;3.30;;
15706;SDS011;7953;54.302;10.128;2023-02-01T13:57:41;15.10;;;3.10;;
15706;SDS011;7953;54.302;10.128;2023-02-01T14:00:22;12.87;;;3.43;;
15706;SDS011;7953;54.302;10.128;2023-02-01T14:05:54;15.30;;;3.57;;
15706;SDS011;7953;54.302;10.128;2023-02-01T14:08:36;14.20;;;4.00;;
15706;SDS011;7953;54.302;10.128;2023-02-01T14:11:07;19.43;;;3.70;;
15706;SDS011;7953;54.302;10.128;2023-02-01T14:14:07;19.13;;;3.47;;
15706;SDS011;7953;54.302;10.128;2023-02-01T14:23:18;17.80;;;3.70;;
15706;SDS011;7953;54.302;10.128;2023-02-01T14:26:08;12.63;;;3.57;;
15706;SDS011;7953;54.302;10.128;2023-02-01T14:28:45;18.30;;;3.77;;
15706;SDS011;7953;54.302;10.128;2023-02-01T14:31:18;18.03;;;4.93;;
15706;SDS011;7953;54.302;10.128;2023-02-01T14:34:08;13.07;;;3.57;;
15706;SDS011;7953;54.302;10.128;2023-02-01T14:36:40;14.80;;;4.17;;
15706;SDS011;7953;54.302;10.128;2023-02-01T14:39:21;21.87;;;5.77;;
15706;SDS011;7953;54.302;10.128;2023-02-01T14:42:15;23.90;;;4.63;;
15706;SDS011;7953;54.302;10.128;2023-02-01T14:44:50;19.57;;;4.87;;
15706;SDS011;7953;54.302;10.128;2023-02-01T14:47:28;18.60;;;4.17;;
15706;SDS011;7953;54.302;10.128;2023-02-01T14:50:03;17.30;;;4.40;;
15706;SDS011;7953;54.302;10.128;2023-02-01T14:55:51;20.23;;;4.00;;
15706;SDS011;7953;54.302;10.128;2023-02-01T14:58:30;21.00;;;3.93;;
15706;SDS011;7953;54.302;10.128;2023-02-01T15:01:05;22.07;;;4.23;;
15706;SDS011;7953;54.302;10.128;2023-02-01T15:03:43;21.47;;;5.97;;
15706;SDS011;7953;54.302;10.128;2023-02-01T15:06:20;23.77;;;4.57;;
15706;SDS011;7953;54.302;10.128;2023-02-01T15:09:00;21.23;;;4.13;;
15706;SDS011;7953;54.302;10.128;2023-02-01T15:11:30;22.33;;;5.10;;
15706;SDS011;7953;54.302;10.128;2023-02-01T15:13:57;20.97;;;4.23;;
15706;SDS011;7953;54.302;10.128;2023-02-01T15:16:26;24.07;;;6.37;;
15706;SDS011;7953;54.302;10.128;2023-02-01T15:19:10;16.43;;;4.50;;
15706;SDS011;7953;54.302;10.128;2023-02-01T15:21:46;28.27;;;6.40;;
15706;SDS011;7953;54.302;10.128;2023-02-01T15:24:17;22.17;;;5.37;;